sensor_id;sensor_type;location;lat;lon;timestamp;pressure;altitude;pressure_sealevel;temperature;humidity
76060;BME280;64759;52.220;5.170;2023-03-23T00:00:57;100091.50;;;11.99;80.93
76060;BME280;64759;52.220;5.170;2023-03-23T00:03:22;100087.91;;;12.00;81.12
76060;BME280;64759;52.220;5.170;2023-03-23T00:05:50;100099.59;;;12.04;80.71
76060;BME280;64759;52.220;5.170;2023-03-23T00:08:17;100095.53;;;12.01;80.19
76060;BME280;64759;52.220;5.170;2023-03-23T00:10:48;100102.50;;;12.09;79.64
76060;BME280;64759;52.220;5.170;2023-03-23T00:13:14;100105.03;;;12.17;79.71
76060;BME280;64759;52.220;5.170;2023-03-23T00:15:44;100100.88;;;12.08;80.20
76060;BME280;64759;52.220;5.170;2023-03-23T00:18:10;100104.06;;;12.18;80.12
76060;BME280;64759;52.220;5.170;2023-03-23T00:20:54;100092.25;;;12.15;79.25
76060;BME280;64759;52.220;5.170;2023-03-23T00:23:23;100084.56;;;12.22;79.39
76060;BME280;64759;52.220;5.170;2023-03-23T00:25:53;100072.13;;;12.17;79.10
76060;BME280;64759;52.220;5.170;2023-03-23T00:28:22;100079.88;;;12.25;79.18
76060;BME280;64759;52.220;5.170;2023-03-23T00:30:58;100086.72;;;12.18;79.30
76060;BME280;64759;52.220;5.170;2023-03-23T00:33:26;100083.13;;;12.19;79.48
76060;BME280;64759;52.220;5.170;2023-03-23T00:35:53;100075.53;;;12.18;79.21
76060;BME280;64759;52.220;5.170;2023-03-23T00:38:21;100078.13;;;12.18;78.45
76060;BME280;64759;52.220;5.170;2023-03-23T00:40:47;100074.19;;;12.22;78.85
76060;BME280;64759;52.220;5.170;2023-03-23T00:43:18;100071.59;;;12.22;78.87
76060;BME280;64759;52.220;5.170;2023-03-23T00:45:44;100069.34;;;12.19;79.03
76060;BME280;64759;52.220;5.170;2023-03-23T00:48:14;100069.94;;;12.29;78.60
76060;BME280;64759;52.220;5.170;2023-03-23T00:50:40;100073.53;;;12.28;78.76
76060;BME280;64759;52.220;5.170;2023-03-23T00:53:06;100057.31;;;12.26;78.00
76060;BME280;64759;52.220;5.170;2023-03-23T00:55:32;100049.88;;;12.23;78.59
76060;BME280;64759;52.220;5.170;2023-03-23T00:57:59;100054.66;;;12.34;78.23
76060;BME280;64759;52.220;5.170;2023-03-23T01:00:26;100052.91;;;12.26;78.31
76060;BME280;64759;52.220;5.170;2023-03-23T01:02:54;100049.94;;;12.37;77.80
76060;BME280;64759;52.220;5.170;2023-03-23T01:05:20;100036.16;;;12.37;77.99
76060;BME280;64759;52.220;5.170;2023-03-23T01:07:46;100041.91;;;12.24;78.11
76060;BME280;64759;52.220;5.170;2023-03-23T01:10:12;100051.47;;;12.24;77.39
76060;BME280;64759;52.220;5.170;2023-03-23T01:12:43;100055.97;;;12.38;77.92
76060;BME280;64759;52.220;5.170;2023-03-23T01:15:13;100055.69;;;12.25;77.20
76060;BME280;64759;52.220;5.170;2023-03-23T01:17:40;100059.41;;;12.30;77.84
76060;BME280;64759;52.220;5.170;2023-03-23T01:20:06;100049.66;;;12.32;77.96
76060;BME280;64759;52.220;5.170;2023-03-23T01:22:32;100056.75;;;12.38;77.40
76060;BME280;64759;52.220;5.170;2023-03-23T01:24:57;100026.97;;;12.26;77.65
76060;BME280;64759;52.220;5.170;2023-03-23T01:27:23;100035.25;;;12.22;77.77
76060;BME280;64759;52.220;5.170;2023-03-23T01:29:48;100012.97;;;12.35;77.51
76060;BME280;64759;52.220;5.170;2023-03-23T01:32:14;100031.25;;;12.42;77.17
76060;BME280;64759;52.220;5.170;2023-03-23T01:34:39;100015.69;;;12.42;76.56
76060;BME280;64759;52.220;5.170;2023-03-23T01:37:05;100016.78;;;12.48;76.69
76060;BME280;64759;52.220;5.170;2023-03-23T01:39:30;100007.25;;;12.40;76.78
76060;BME280;64759;52.220;5.170;2023-03-23T01:41:56;100015.50;;;12.43;77.04
76060;BME280;64759;52.220;5.170;2023-03-23T01:47:09;100004.19;;;12.36;76.82
76060;BME280;64759;52.220;5.170;2023-03-23T01:49:40;100008.88;;;12.41;76.46
76060;BME280;64759;52.220;5.170;2023-03-23T01:52:12;100013.59;;;12.37;76.59
76060;BME280;64759;52.220;5.170;2023-03-23T01:54:45;100009.22;;;12.38;76.95
76060;BME280;64759;52.220;5.170;2023-03-23T01:57:15;100003.22;;;12.37;76.74
76060;BME280;64759;52.220;5.170;2023-03-23T01:59:42;99999.22;;;12.27;76.73
76060;BME280;64759;52.220;5.170;2023-03-23T02:02:24;99995.13;;;12.32;77.11
76060;BME280;64759;52.220;5.170;2023-03-23T02:04:55;99987.03;;;12.35;76.77
76060;BME280;64759;52.220;5.170;2023-03-23T02:07:24;99990.25;;;12.37;77.17
76060;BME280;64759;52.220;5.170;2023-03-23T02:09:52;99989.72;;;12.42;76.75
76060;BME280;64759;52.220;5.170;2023-03-23T02:12:18;99987.16;;;12.34;76.28
76060;BME280;64759;52.220;5.170;2023-03-23T02:14:45;99987.81;;;12.36;76.95
76060;BME280;64759;52.220;5.170;2023-03-23T02:20:49;99993.38;;;12.33;77.14
76060;BME280;64759;52.220;5.170;2023-03-23T02:28:16;99989.31;;;12.30;76.68
76060;BME280;64759;52.220;5.170;2023-03-23T02:36:26;99991.56;;;12.33;76.76
76060;BME280;64759;52.220;5.170;2023-03-23T02:41:45;99986.72;;;12.30;77.18
76060;BME280;64759;52.220;5.170;2023-03-23T02:44:13;99992.22;;;12.35;76.95
76060;BME280;64759;52.220;5.170;2023-03-23T02:46:41;99993.28;;;12.41;76.72
76060;BME280;64759;52.220;5.170;2023-03-23T02:49:09;99988.22;;;12.48;76.71
76060;BME280;64759;52.220;5.170;2023-03-23T02:51:37;99996.69;;;12.41;76.89
76060;BME280;64759;52.220;5.170;2023-03-23T02:54:04;99989.91;;;12.40;77.17
76060;BME280;64759;52.220;5.170;2023-03-23T02:56:31;99985.88;;;12.38;77.22
76060;BME280;64759;52.220;5.170;2023-03-23T02:59:00;99976.84;;;12.48;76.11
76060;BME280;64759;52.220;5.170;2023-03-23T03:04:04;99990.13;;;12.54;76.14
76060;BME280;64759;52.220;5.170;2023-03-23T03:12:10;99984.09;;;12.53;76.22
76060;BME280;64759;52.220;5.170;2023-03-23T03:14:44;99983.97;;;12.55;75.92
76060;BME280;64759;52.220;5.170;2023-03-23T03:17:27;99976.59;;;12.58;75.72
76060;BME280;64759;52.220;5.170;2023-03-23T03:20:00;99968.38;;;12.55;75.69
76060;BME280;64759;52.220;5.170;2023-03-23T03:22:33;99965.59;;;12.56;75.81
76060;BME280;64759;52.220;5.170;2023-03-23T03:25:03;99959.16;;;12.52;75.29
76060;BME280;64759;52.220;5.170;2023-03-23T03:27:30;99968.81;;;12.58;75.59
76060;BME280;64759;52.220;5.170;2023-03-23T03:30:09;99950.63;;;12.58;75.17
76060;BME280;64759;52.220;5.170;2023-03-23T03:32:45;99962.38;;;12.54;75.25
76060;BME280;64759;52.220;5.170;2023-03-23T03:35:16;99961.22;;;12.57;75.05
76060;BME280;64759;52.220;5.170;2023-03-23T03:37:42;99958.97;;;12.54;75.14
76060;BME280;64759;52.220;5.170;2023-03-23T03:40:14;99971.06;;;12.61;75.34
76060;BME280;64759;52.220;5.170;2023-03-23T03:42:42;99954.69;;;12.61;75.36
76060;BME280;64759;52.220;5.170;2023-03-23T03:45:10;99948.84;;;12.59;75.65
76060;BME280;64759;52.220;5.170;2023-03-23T03:47:37;99957.28;;;12.61;75.32
76060;BME280;64759;52.220;5.170;2023-03-23T03:50:03;99985.69;;;12.62;76.34
76060;BME280;64759;52.220;5.170;2023-03-23T03:52:30;99990.31;;;12.52;77.75
76060;BME280;64759;52.220;5.170;2023-03-23T03:54:55;99991.28;;;12.28;79.69
76060;BME280;64759;52.220;5.170;2023-03-23T03:57:22;99966.53;;;12.18;80.65
76060;BME280;64759;52.220;5.170;2023-03-23T04:00:08;99987.66;;;12.07;81.30
76060;BME280;64759;52.220;5.170;2023-03-23T04:02:45;100000.19;;;12.03;82.02
76060;BME280;64759;52.220;5.170;2023-03-23T04:05:19;99983.38;;;11.91;82.66
76060;BME280;64759;52.220;5.170;2023-03-23T04:07:48;100002.88;;;11.79;83.58
76060;BME280;64759;52.220;5.170;2023-03-23T04:10:19;99996.13;;;11.62;84.72
76060;BME280;64759;52.220;5.170;2023-03-23T04:12:48;99995.31;;;11.53;85.15
76060;BME280;64759;52.220;5.170;2023-03-23T04:15:33;99998.09;;;11.44;85.66
76060;BME280;64759;52.220;5.170;2023-03-23T04:17:59;100008.47;;;11.36;86.62
76060;BME280;64759;52.220;5.170;2023-03-23T04:20:25;99987.13;;;11.26;87.35
76060;BME280;64759;52.220;5.170;2023-03-23T04:22:52;99991.03;;;11.22;87.08
76060;BME280;64759;52.220;5.170;2023-03-23T04:25:21;99989.44;;;11.12;86.62
76060;BME280;64759;52.220;5.170;2023-03-23T04:27:50;99994.94;;;11.09;87.11
76060;BME280;64759;52.220;5.170;2023-03-23T04:30:21;99977.78;;;11.00;88.01
76060;BME280;64759;52.220;5.170;2023-03-23T04:32:59;99996.38;;;10.96;86.56
76060;BME280;64759;52.220;5.170;2023-03-23T04:35:27;99998.97;;;10.96;86.76
76060;BME280;64759;52.220;5.170;2023-03-23T04:38:05;100000.94;;;10.94;87.17
76060;BME280;64759;52.220;5.170;2023-03-23T04:40:31;99992.19;;;10.95;86.85
76060;BME280;64759;52.220;5.170;2023-03-23T04:43:10;99989.44;;;11.04;86.69
76060;BME280;64759;52.220;5.170;2023-03-23T04:45:54;100008.06;;;11.08;86.28
76060;BME280;64759;52.220;5.170;2023-03-23T04:48:25;100006.44;;;11.15;85.87
76060;BME280;64759;52.220;5.170;2023-03-23T04:51:03;99995.41;;;11.21;84.94
76060;BME280;64759;52.220;5.170;2023-03-23T04:53:30;100023.75;;;11.23;84.49
76060;BME280;64759;52.220;5.170;2023-03-23T04:55:57;100032.16;;;11.25;84.60
76060;BME280;64759;52.220;5.170;2023-03-23T04:58:24;100032.94;;;11.33;83.37
76060;BME280;64759;52.220;5.170;2023-03-23T05:01:08;100044.94;;;11.34;83.75
76060;BME280;64759;52.220;5.170;2023-03-23T05:03:42;100037.81;;;11.36;83.20
76060;BME280;64759;52.220;5.170;2023-03-23T05:06:10;100047.03;;;11.39;82.81
76060;BME280;64759;52.220;5.170;2023-03-23T05:08:37;100035.84;;;11.38;82.74
76060;BME280;64759;52.220;5.170;2023-03-23T05:11:05;100034.25;;;11.37;82.48
76060;BME280;64759;52.220;5.170;2023-03-23T05:13:34;100038.94;;;11.50;82.38
76060;BME280;64759;52.220;5.170;2023-03-23T05:16:04;100041.97;;;11.53;82.97
76060;BME280;64759;52.220;5.170;2023-03-23T05:18:31;100037.44;;;11.55;82.87
76060;BME280;64759;52.220;5.170;2023-03-23T05:21:02;100046.22;;;11.46;83.03
76060;BME280;64759;52.220;5.170;2023-03-23T05:23:32;100049.44;;;11.40;83.70
76060;BME280;64759;52.220;5.170;2023-03-23T05:26:04;100043.44;;;11.48;82.85
76060;BME280;64759;52.220;5.170;2023-03-23T05:28:32;100055.13;;;11.52;82.58
76060;BME280;64759;52.220;5.170;2023-03-23T05:31:04;100054.16;;;11.45;82.75
76060;BME280;64759;52.220;5.170;2023-03-23T05:33:32;100056.72;;;11.53;82.60
76060;BME280;64759;52.220;5.170;2023-03-23T05:35:57;100072.63;;;11.42;83.05
76060;BME280;64759;52.220;5.170;2023-03-23T05:38:30;100067.59;;;11.48;82.80
76060;BME280;64759;52.220;5.170;2023-03-23T05:40:58;100058.88;;;11.41;83.07
76060;BME280;64759;52.220;5.170;2023-03-23T05:43:30;100079.59;;;11.33;83.58
76060;BME280;64759;52.220;5.170;2023-03-23T05:46:18;100087.53;;;11.24;84.45
76060;BME280;64759;52.220;5.170;2023-03-23T05:48:45;100084.94;;;11.15;84.69
76060;BME280;64759;52.220;5.170;2023-03-23T05:51:15;100083.19;;;11.08;85.28
76060;BME280;64759;52.220;5.170;2023-03-23T05:53:43;100088.66;;;11.13;84.94
76060;BME280;64759;52.220;5.170;2023-03-23T05:56:10;100086.09;;;11.13;85.05
76060;BME280;64759;52.220;5.170;2023-03-23T05:58:54;100081.56;;;10.99;85.93
76060;BME280;64759;52.220;5.170;2023-03-23T06:01:20;100074.78;;;10.98;86.24
76060;BME280;64759;52.220;5.170;2023-03-23T06:03:46;100073.97;;;10.97;86.20
76060;BME280;64759;52.220;5.170;2023-03-23T06:06:21;100074.94;;;10.88;86.72
76060;BME280;64759;52.220;5.170;2023-03-23T06:09:02;100083.81;;;10.94;86.69
76060;BME280;64759;52.220;5.170;2023-03-23T06:11:48;100095.00;;;11.02;86.75
76060;BME280;64759;52.220;5.170;2023-03-23T06:14:27;100107.97;;;11.02;86.63
76060;BME280;64759;52.220;5.170;2023-03-23T06:16:53;100090.63;;;10.95;86.93
76060;BME280;64759;52.220;5.170;2023-03-23T06:19:18;100093.88;;;11.05;86.09
76060;BME280;64759;52.220;5.170;2023-03-23T06:21:54;100103.25;;;11.06;86.41
76060;BME280;64759;52.220;5.170;2023-03-23T06:24:44;100100.66;;;11.14;85.97
76060;BME280;64759;52.220;5.170;2023-03-23T06:27:14;100104.53;;;11.18;85.59
76060;BME280;64759;52.220;5.170;2023-03-23T06:29:42;100110.25;;;11.05;86.39
76060;BME280;64759;52.220;5.170;2023-03-23T06:32:10;100108.28;;;11.07;86.28
76060;BME280;64759;52.220;5.170;2023-03-23T06:34:36;100116.38;;;11.12;85.88
76060;BME280;64759;52.220;5.170;2023-03-23T06:37:20;100120.59;;;11.13;85.92
76060;BME280;64759;52.220;5.170;2023-03-23T06:40:00;100124.81;;;11.23;84.99
76060;BME280;64759;52.220;5.170;2023-03-23T06:42:35;100130.31;;;11.20;85.18
76060;BME280;64759;52.220;5.170;2023-03-23T06:45:35;100131.09;;;11.28;84.92
76060;BME280;64759;52.220;5.170;2023-03-23T06:48:30;100138.41;;;11.25;84.88
76060;BME280;64759;52.220;5.170;2023-03-23T06:50:56;100143.94;;;11.30;84.74
76060;BME280;64759;52.220;5.170;2023-03-23T06:53:24;100139.88;;;11.27;85.30
76060;BME280;64759;52.220;5.170;2023-03-23T06:55:54;100132.56;;;11.31;85.30
76060;BME280;64759;52.220;5.170;2023-03-23T06:58:19;100137.94;;;11.37;84.52
76060;BME280;64759;52.220;5.170;2023-03-23T07:00:46;100139.41;;;11.40;84.40
76060;BME280;64759;52.220;5.170;2023-03-23T07:03:14;100136.31;;;11.36;84.51
76060;BME280;64759;52.220;5.170;2023-03-23T07:05:40;100138.72;;;11.38;84.92
76060;BME280;64759;52.220;5.170;2023-03-23T07:08:09;100139.22;;;11.41;84.32
76060;BME280;64759;52.220;5.170;2023-03-23T07:10:40;100148.94;;;11.39;83.92
76060;BME280;64759;52.220;5.170;2023-03-23T07:13:10;100138.25;;;11.42;83.43
76060;BME280;64759;52.220;5.170;2023-03-23T07:15:47;100137.44;;;11.42;83.21
76060;BME280;64759;52.220;5.170;2023-03-23T07:18:14;100135.00;;;11.48;83.51
76060;BME280;64759;52.220;5.170;2023-03-23T07:20:47;100136.13;;;11.54;83.07
76060;BME280;64759;52.220;5.170;2023-03-23T07:23:14;100141.47;;;11.52;83.80
76060;BME280;64759;52.220;5.170;2023-03-23T07:25:44;100140.19;;;11.72;82.22
76060;BME280;64759;52.220;5.170;2023-03-23T07:28:15;100143.72;;;11.79;82.51
76060;BME280;64759;52.220;5.170;2023-03-23T07:30:41;100152.19;;;11.82;81.16
76060;BME280;64759;52.220;5.170;2023-03-23T07:33:10;100158.69;;;11.69;81.68
76060;BME280;64759;52.220;5.170;2023-03-23T07:35:36;100158.50;;;11.71;81.96
76060;BME280;64759;52.220;5.170;2023-03-23T07:38:06;100161.28;;;11.69;81.89
76060;BME280;64759;52.220;5.170;2023-03-23T07:40:35;100158.34;;;11.72;81.21
76060;BME280;64759;52.220;5.170;2023-03-23T07:43:06;100160.59;;;11.67;80.92
76060;BME280;64759;52.220;5.170;2023-03-23T07:45:52;100162.25;;;11.68;81.41
76060;BME280;64759;52.220;5.170;2023-03-23T07:48:19;100160.59;;;11.67;80.95
76060;BME280;64759;52.220;5.170;2023-03-23T07:50:44;100166.94;;;11.73;80.51
76060;BME280;64759;52.220;5.170;2023-03-23T07:53:12;100170.16;;;11.67;80.67
76060;BME280;64759;52.220;5.170;2023-03-23T07:55:40;100167.44;;;11.76;80.13
76060;BME280;64759;52.220;5.170;2023-03-23T07:58:15;100165.78;;;11.75;80.09
76060;BME280;64759;52.220;5.170;2023-03-23T08:00:46;100170.66;;;11.78;80.15
76060;BME280;64759;52.220;5.170;2023-03-23T08:03:15;100165.97;;;11.74;80.18
76060;BME280;64759;52.220;5.170;2023-03-23T08:06:12;100180.53;;;11.83;80.30
76060;BME280;64759;52.220;5.170;2023-03-23T08:08:50;100181.81;;;11.95;79.71
76060;BME280;64759;52.220;5.170;2023-03-23T08:11:35;100173.03;;;12.04;79.14
76060;BME280;64759;52.220;5.170;2023-03-23T08:14:26;100191.50;;;12.09;79.94
76060;BME280;64759;52.220;5.170;2023-03-23T08:17:03;100188.75;;;12.11;79.61
76060;BME280;64759;52.220;5.170;2023-03-23T08:19:36;100190.22;;;12.05;80.02
76060;BME280;64759;52.220;5.170;2023-03-23T08:22:30;100194.75;;;12.11;80.04
76060;BME280;64759;52.220;5.170;2023-03-23T08:25:23;100188.72;;;12.27;79.19
76060;BME280;64759;52.220;5.170;2023-03-23T08:28:11;100184.84;;;12.23;78.96
76060;BME280;64759;52.220;5.170;2023-03-23T08:30:58;100185.50;;;12.17;79.84
76060;BME280;64759;52.220;5.170;2023-03-23T08:33:33;100185.97;;;12.28;78.67
76060;BME280;64759;52.220;5.170;2023-03-23T08:36:18;100196.69;;;12.25;79.17
76060;BME280;64759;52.220;5.170;2023-03-23T08:39:03;100198.50;;;12.56;77.99
76060;BME280;64759;52.220;5.170;2023-03-23T08:41:50;100182.25;;;12.92;77.11
76060;BME280;64759;52.220;5.170;2023-03-23T08:44:36;100204.69;;;13.24;75.48
76060;BME280;64759;52.220;5.170;2023-03-23T08:47:27;100194.63;;;13.44;73.87
76060;BME280;64759;52.220;5.170;2023-03-23T08:50:14;100199.00;;;13.43;74.37
76060;BME280;64759;52.220;5.170;2023-03-23T08:53:00;100202.28;;;13.37;74.24
76060;BME280;64759;52.220;5.170;2023-03-23T08:55:52;100199.50;;;13.61;74.49
76060;BME280;64759;52.220;5.170;2023-03-23T08:58:35;100218.22;;;13.80;72.44
76060;BME280;64759;52.220;5.170;2023-03-23T09:01:21;100208.72;;;14.01;73.27
76060;BME280;64759;52.220;5.170;2023-03-23T09:03:55;100199.34;;;14.15;71.81
76060;BME280;64759;52.220;5.170;2023-03-23T09:06:26;100203.88;;;14.13;70.96
76060;BME280;64759;52.220;5.170;2023-03-23T09:08:53;100215.38;;;14.04;72.20
76060;BME280;64759;52.220;5.170;2023-03-23T09:11:21;100214.13;;;14.00;72.09
76060;BME280;64759;52.220;5.170;2023-03-23T09:14:02;100219.50;;;13.98;71.60
76060;BME280;64759;52.220;5.170;2023-03-23T09:16:28;100219.97;;;14.02;71.14
76060;BME280;64759;52.220;5.170;2023-03-23T09:18:54;100212.34;;;14.15;69.76
76060;BME280;64759;52.220;5.170;2023-03-23T09:21:23;100218.88;;;13.96;70.43
76060;BME280;64759;52.220;5.170;2023-03-23T09:23:49;100216.53;;;14.01;69.96
76060;BME280;64759;52.220;5.170;2023-03-23T09:26:14;100216.31;;;14.40;68.81
76060;BME280;64759;52.220;5.170;2023-03-23T09:28:40;100220.75;;;14.90;67.21
76060;BME280;64759;52.220;5.170;2023-03-23T09:31:06;100225.06;;;15.19;67.51
76060;BME280;64759;52.220;5.170;2023-03-23T09:33:31;100225.88;;;14.98;66.57
76060;BME280;64759;52.220;5.170;2023-03-23T09:36:00;100226.63;;;14.77;67.30
76060;BME280;64759;52.220;5.170;2023-03-23T09:38:30;100233.56;;;14.41;67.35
76060;BME280;64759;52.220;5.170;2023-03-23T09:44:16;100227.69;;;14.10;67.59
76060;BME280;64759;52.220;5.170;2023-03-23T09:49:40;100240.88;;;13.71;67.42
76060;BME280;64759;52.220;5.170;2023-03-23T09:52:15;100231.03;;;13.81;67.71
76060;BME280;64759;52.220;5.170;2023-03-23T09:54:43;100245.09;;;13.72;67.44
76060;BME280;64759;52.220;5.170;2023-03-23T09:57:14;100243.66;;;13.69;68.31
76060;BME280;64759;52.220;5.170;2023-03-23T09:59:56;100249.16;;;13.52;67.66
76060;BME280;64759;52.220;5.170;2023-03-23T10:02:39;100253.88;;;13.71;66.93
76060;BME280;64759;52.220;5.170;2023-03-23T10:07:50;100252.03;;;13.57;66.13
76060;BME280;64759;52.220;5.170;2023-03-23T10:10:16;100261.88;;;13.69;67.06
76060;BME280;64759;52.220;5.170;2023-03-23T10:12:54;100260.66;;;13.80;66.70
76060;BME280;64759;52.220;5.170;2023-03-23T10:15:31;100264.13;;;14.10;66.44
76060;BME280;64759;52.220;5.170;2023-03-23T10:28:52;100272.09;;;14.60;67.09
76060;BME280;64759;52.220;5.170;2023-03-23T10:31:30;100279.84;;;15.19;64.05
76060;BME280;64759;52.220;5.170;2023-03-23T10:34:03;100275.63;;;15.53;61.59
76060;BME280;64759;52.220;5.170;2023-03-23T10:36:40;100280.19;;;15.30;62.63
76060;BME280;64759;52.220;5.170;2023-03-23T10:39:18;100275.53;;;15.26;61.96
76060;BME280;64759;52.220;5.170;2023-03-23T10:41:46;100274.09;;;15.59;60.54
76060;BME280;64759;52.220;5.170;2023-03-23T10:44:16;100278.25;;;15.75;60.65
76060;BME280;64759;52.220;5.170;2023-03-23T10:46:46;100269.41;;;15.76;60.68
76060;BME280;64759;52.220;5.170;2023-03-23T10:49:23;100277.06;;;15.56;60.32
76060;BME280;64759;52.220;5.170;2023-03-23T10:52:04;100270.53;;;15.66;59.83
76060;BME280;64759;52.220;5.170;2023-03-23T10:54:38;100274.31;;;15.85;59.33
76060;BME280;64759;52.220;5.170;2023-03-23T10:57:23;100281.19;;;16.14;58.24
76060;BME280;64759;52.220;5.170;2023-03-23T10:59:49;100285.81;;;15.91;58.12
76060;BME280;64759;52.220;5.170;2023-03-23T11:02:18;100285.44;;;15.73;59.68
76060;BME280;64759;52.220;5.170;2023-03-23T11:04:59;100291.91;;;15.41;58.19
76060;BME280;64759;52.220;5.170;2023-03-23T11:07:29;100289.97;;;14.92;59.75
76060;BME280;64759;52.220;5.170;2023-03-23T11:09:57;100287.72;;;14.75;60.41
76060;BME280;64759;52.220;5.170;2023-03-23T11:12:23;100290.06;;;14.55;61.31
76060;BME280;64759;52.220;5.170;2023-03-23T11:14:49;100295.53;;;14.46;63.23
76060;BME280;64759;52.220;5.170;2023-03-23T11:17:26;100289.50;;;14.89;62.08
76060;BME280;64759;52.220;5.170;2023-03-23T11:19:52;100283.75;;;15.08;61.16
76060;BME280;64759;52.220;5.170;2023-03-23T11:22:27;100291.34;;;14.74;61.12
76060;BME280;64759;52.220;5.170;2023-03-23T11:24:55;100285.59;;;14.64;61.72
76060;BME280;64759;52.220;5.170;2023-03-23T11:27:23;100289.91;;;14.42;61.81
76060;BME280;64759;52.220;5.170;2023-03-23T11:29:51;100281.00;;;14.36;62.00
76060;BME280;64759;52.220;5.170;2023-03-23T11:32:17;100264.22;;;14.16;62.59
76060;BME280;64759;52.220;5.170;2023-03-23T11:34:45;100291.72;;;14.19;63.05
76060;BME280;64759;52.220;5.170;2023-03-23T11:37:29;100285.16;;;14.23;62.77
76060;BME280;64759;52.220;5.170;2023-03-23T11:40:15;100297.59;;;14.13;63.65
76060;BME280;64759;52.220;5.170;2023-03-23T11:42:49;100292.84;;;14.39;63.34
76060;BME280;64759;52.220;5.170;2023-03-23T11:45:34;100287.41;;;15.14;60.57
76060;BME280;64759;52.220;5.170;2023-03-23T11:51:16;100287.81;;;14.96;61.01
76060;BME280;64759;52.220;5.170;2023-03-23T11:56:33;100286.63;;;15.13;59.70
76060;BME280;64759;52.220;5.170;2023-03-23T11:58:59;100273.78;;;14.82;59.92
76060;BME280;64759;52.220;5.170;2023-03-23T12:12:47;100282.03;;;16.21;54.37
76060;BME280;64759;52.220;5.170;2023-03-23T12:18:17;100289.22;;;15.70;56.76
76060;BME280;64759;52.220;5.170;2023-03-23T12:24:26;100272.72;;;15.63;57.27
76060;BME280;64759;52.220;5.170;2023-03-23T12:29:39;100274.41;;;15.49;58.58
76060;BME280;64759;52.220;5.170;2023-03-23T12:35:23;100278.22;;;15.96;57.18
76060;BME280;64759;52.220;5.170;2023-03-23T12:48:27;100267.13;;;16.15;55.42
76060;BME280;64759;52.220;5.170;2023-03-23T12:51:21;100269.44;;;16.03;55.57
76060;BME280;64759;52.220;5.170;2023-03-23T12:54:11;100272.63;;;15.78;56.11
76060;BME280;64759;52.220;5.170;2023-03-23T13:02:21;100250.78;;;15.57;56.87
76060;BME280;64759;52.220;5.170;2023-03-23T13:04:54;100263.91;;;15.64;57.83
76060;BME280;64759;52.220;5.170;2023-03-23T13:07:29;100259.59;;;15.78;57.02
76060;BME280;64759;52.220;5.170;2023-03-23T13:10:15;100265.03;;;16.04;57.29
76060;BME280;64759;52.220;5.170;2023-03-23T13:12:46;100256.84;;;16.07;56.65
76060;BME280;64759;52.220;5.170;2023-03-23T13:15:32;100269.72;;;15.87;56.66
76060;BME280;64759;52.220;5.170;2023-03-23T13:18:08;100286.94;;;15.60;57.04
76060;BME280;64759;52.220;5.170;2023-03-23T13:20:42;100287.88;;;15.38;57.89
76060;BME280;64759;52.220;5.170;2023-03-23T13:23:18;100290.47;;;15.53;58.14
76060;BME280;64759;52.220;5.170;2023-03-23T13:28:18;100282.84;;;15.94;57.13
76060;BME280;64759;52.220;5.170;2023-03-23T13:33:37;100277.94;;;16.40;57.00
76060;BME280;64759;52.220;5.170;2023-03-23T13:36:08;100280.47;;;16.54;56.25
76060;BME280;64759;52.220;5.170;2023-03-23T13:38:34;100273.09;;;16.71;54.84
76060;BME280;64759;52.220;5.170;2023-03-23T13:41:11;100283.63;;;16.84;54.59
76060;BME280;64759;52.220;5.170;2023-03-23T13:43:39;100293.88;;;16.79;53.97
76060;BME280;64759;52.220;5.170;2023-03-23T13:48:49;100278.28;;;16.30;54.20
76060;BME280;64759;52.220;5.170;2023-03-23T13:54:25;100295.47;;;16.18;54.75
76060;BME280;64759;52.220;5.170;2023-03-23T13:57:02;100290.72;;;16.00;55.49
76060;BME280;64759;52.220;5.170;2023-03-23T13:59:34;100280.63;;;15.97;55.86
76060;BME280;64759;52.220;5.170;2023-03-23T14:02:38;100284.69;;;15.79;57.00
76060;BME280;64759;52.220;5.170;2023-03-23T14:10:35;100254.19;;;15.79;57.57
76060;BME280;64759;52.220;5.170;2023-03-23T14:13:03;100248.59;;;15.82;57.08
76060;BME280;64759;52.220;5.170;2023-03-23T14:15:30;100246.44;;;15.92;57.83
76060;BME280;64759;52.220;5.170;2023-03-23T14:17:57;100261.69;;;15.89;57.23
76060;BME280;64759;52.220;5.170;2023-03-23T14:20:31;100268.25;;;16.06;57.27
76060;BME280;64759;52.220;5.170;2023-03-23T14:22:59;100280.88;;;16.02;58.19
76060;BME280;64759;52.220;5.170;2023-03-23T14:25:30;100286.53;;;16.06;57.85
76060;BME280;64759;52.220;5.170;2023-03-23T14:27:57;100268.53;;;16.17;58.12
76060;BME280;64759;52.220;5.170;2023-03-23T14:30:25;100263.44;;;16.37;56.18
76060;BME280;64759;52.220;5.170;2023-03-23T14:32:52;100273.31;;;16.42;53.80
76060;BME280;64759;52.220;5.170;2023-03-23T14:35:26;100272.72;;;16.40;52.91
76060;BME280;64759;52.220;5.170;2023-03-23T14:37:53;100254.63;;;16.38;51.58
76060;BME280;64759;52.220;5.170;2023-03-23T14:40:19;100229.84;;;16.34;52.44
76060;BME280;64759;52.220;5.170;2023-03-23T14:42:45;100213.19;;;16.35;51.67
76060;BME280;64759;52.220;5.170;2023-03-23T14:45:20;100225.44;;;16.34;52.21
76060;BME280;64759;52.220;5.170;2023-03-23T14:47:48;100210.06;;;16.46;51.82
76060;BME280;64759;52.220;5.170;2023-03-23T14:50:38;100207.53;;;16.31;53.05
76060;BME280;64759;52.220;5.170;2023-03-23T14:53:18;100213.53;;;16.19;53.49
76060;BME280;64759;52.220;5.170;2023-03-23T14:55:45;100211.75;;;16.26;53.57
76060;BME280;64759;52.220;5.170;2023-03-23T14:58:14;100216.78;;;16.34;53.90
76060;BME280;64759;52.220;5.170;2023-03-23T15:03:27;100209.50;;;16.23;54.05
76060;BME280;64759;52.220;5.170;2023-03-23T15:06:00;100214.59;;;16.03;54.70
76060;BME280;64759;52.220;5.170;2023-03-23T15:08:30;100228.88;;;16.07;55.17
76060;BME280;64759;52.220;5.170;2023-03-23T15:11:27;100230.66;;;16.00;55.13